Time;durP1;ratioP1;P1;durP2;ratioP2;P2;SDS_P1;SDS_P2;PMS_P1;PMS_P2;Temp;Humidity;BMP_temperature;BMP_pressure;BME280_temperature;BME280_humidity;BME280_pressure;Samples;Min_cycle;Max_cycle;Signal;HPM_P1;HPM_P2
2021/04/23 00:00:16;;;;;;;0.30;0.20;;;;;;;4.96;82.03;101176.13;5047832;28;20956;-56
2021/04/23 00:02:46;;;;;;;0.30;0.20;;;;;;;4.92;82.03;101177.84;5048243;28;20447;-58
2021/04/23 00:05:14;;;;;;;1.60;1.50;;;;;;;4.79;82.03;101175.97;5034986;28;20872;-57
2021/04/23 00:07:40;;;;;;;0.30;0.30;;;;;;;4.82;82.48;101178.66;5048364;28;20450;-56
2021/04/23 00:10:17;;;;;;;0.30;0.20;;;;;;;4.59;83.10;101177.53;5043948;28;20504;-57
2021/04/23 00:12:44;;;;;;;0.30;0.20;;;;;;;4.75;82.26;101174.19;5041275;28;21000;-57
2021/04/23 00:15:15;;;;;;;0.30;0.20;;;;;;;4.33;82.97;101179.88;5043369;28;20511;-57
2021/04/23 00:17:41;;;;;;;0.30;0.20;;;;;;;4.14;83.16;101182.31;5048500;28;20444;-56
2021/04/23 00:20:13;;;;;;;0.30;0.20;;;;;;;3.96;83.28;101178.56;5028623;28;20446;-57
2021/04/23 00:22:40;;;;;;;0.30;0.20;;;;;;;3.66;85.55;101182.56;5041545;28;20450;-57
2021/04/23 00:25:07;;;;;;;0.30;0.20;;;;;;;4.16;84.66;101190.22;5043102;28;20474;-56
2021/04/23 00:27:33;;;;;;;0.30;0.20;;;;;;;4.09;84.62;101178.72;5048162;28;20463;-57
2021/04/23 00:30:01;;;;;;;0.30;0.20;;;;;;;3.97;84.51;101183.84;5047492;28;20461;-56
2021/04/23 00:32:28;;;;;;;0.30;0.20;;;;;;;4.13;84.07;101177.03;5035242;28;20941;-56
2021/04/23 00:34:55;;;;;;;0.83;0.77;;;;;;;4.09;84.24;101181.34;5047309;28;20501;-57
2021/04/23 00:37:21;;;;;;;0.30;0.20;;;;;;;3.95;84.16;101177.69;5041588;28;20450;-58
2021/04/23 00:39:47;;;;;;;0.30;0.20;;;;;;;4.57;82.09;101168.75;5024780;28;20813;-56
2021/04/23 00:42:14;;;;;;;0.30;0.20;;;;;;;3.91;82.96;101178.50;5041678;28;20891;-56
2021/04/23 00:44:40;;;;;;;0.30;0.10;;;;;;;3.70;84.03;101175.59;5040870;28;20518;-57
2021/04/23 00:47:07;;;;;;;0.30;0.20;;;;;;;3.78;84.40;101179.22;5048202;28;20459;-61
2021/04/23 00:49:33;;;;;;;0.30;0.20;;;;;;;3.64;84.26;101175.53;5047984;28;20474;-58
2021/04/23 00:52:02;;;;;;;0.73;0.73;;;;;;;3.77;84.39;101167.81;5041786;28;20473;-56
2021/04/23 00:54:30;;;;;;;0.30;0.20;;;;;;;3.63;83.60;101179.00;5040157;28;20920;-57
2021/04/23 00:56:57;;;;;;;0.30;0.20;;;;;;;3.59;84.72;101178.09;5047246;28;20459;-56
2021/04/23 00:59:24;;;;;;;0.30;0.20;;;;;;;3.59;85.15;101164.94;5048163;28;21001;-57
2021/04/23 01:02:07;;;;;;;0.30;0.20;;;;;;;3.30;84.83;101180.31;5042791;28;20451;-57
2021/04/23 01:04:34;;;;;;;0.30;0.17;;;;;;;3.37;85.16;101179.50;5040829;28;20465;-57
2021/04/23 01:07:00;;;;;;;0.30;0.20;;;;;;;3.30;85.71;101182.94;5045047;28;20480;-58
2021/04/23 01:09:29;;;;;;;0.30;0.20;;;;;;;3.21;86.22;101180.16;5032844;28;20819;-57
2021/04/23 01:11:57;;;;;;;0.30;0.20;;;;;;;3.19;86.54;101187.13;5045292;28;20450;-56
2021/04/23 01:14:24;;;;;;;0.30;0.20;;;;;;;3.09;87.03;101172.94;5041563;28;20506;-57
2021/04/23 01:16:51;;;;;;;0.30;0.20;;;;;;;3.11;87.65;101179.09;5044123;28;20479;-62
2021/04/23 01:19:20;;;;;;;0.30;0.20;;;;;;;3.00;87.53;101178.03;5047580;28;20452;-61
2021/04/23 01:21:48;;;;;;;0.30;0.10;;;;;;;2.99;87.75;101178.91;5028915;28;20474;-56
2021/04/23 01:24:15;;;;;;;0.30;0.20;;;;;;;2.92;88.82;101172.69;5041947;28;20470;-68
2021/04/23 01:26:43;;;;;;;0.30;0.20;;;;;;;2.90;88.43;101179.66;5043288;28;20452;-56
2021/04/23 01:29:12;;;;;;;0.30;0.20;;;;;;;2.89;88.13;101180.50;5048219;28;20447;-57
2021/04/23 01:31:41;;;;;;;0.30;0.20;;;;;;;2.97;88.09;101178.88;5038337;28;20481;-57
2021/04/23 01:34:29;;;;;;;0.30;0.10;;;;;;;3.00;87.84;101182.41;5029119;28;20482;-57
2021/04/23 01:36:56;;;;;;;0.30;0.20;;;;;;;2.82;87.94;101185.63;5040848;28;20443;-56
2021/04/23 01:39:26;;;;;;;0.30;0.20;;;;;;;2.65;88.15;101178.34;5054362;28;20454;-57
2021/04/23 01:41:54;;;;;;;0.30;0.20;;;;;;;2.63;88.70;101193.19;5044834;28;20454;-56
2021/04/23 01:44:21;;;;;;;0.30;0.20;;;;;;;2.71;87.97;101184.53;5047630;28;20471;-57
2021/04/23 01:46:49;;;;;;;0.50;0.50;;;;;;;2.68;88.29;101191.50;5033591;28;20447;-56
2021/04/23 01:49:18;;;;;;;0.40;0.40;;;;;;;2.71;88.35;101189.78;5050320;28;20533;-56
2021/04/23 01:51:52;;;;;;;0.30;0.20;;;;;;;2.66;89.21;101189.72;5044744;28;20986;-60
2021/04/23 01:54:20;;;;;;;0.30;0.10;;;;;;;2.58;89.23;101202.69;5044671;28;20842;-57
2021/04/23 01:56:47;;;;;;;0.30;0.10;;;;;;;2.61;89.33;101196.66;5031520;28;20469;-56
2021/04/23 01:59:15;;;;;;;0.30;0.20;;;;;;;2.69;89.24;101192.41;5045473;28;20966;-55
2021/04/23 02:01:41;;;;;;;0.30;0.20;;;;;;;2.55;89.58;101204.38;5014521;28;20450;-57
2021/04/23 02:04:10;;;;;;;0.30;0.20;;;;;;;2.71;90.38;101208.16;5044799;28;20517;-56
2021/04/23 02:06:37;;;;;;;0.30;0.10;;;;;;;2.73;89.08;101211.69;5051669;28;20452;-57
2021/04/23 02:09:06;;;;;;;0.30;0.10;;;;;;;2.56;89.47;101207.03;5037952;28;20452;-56
2021/04/23 02:11:33;;;;;;;0.30;0.20;;;;;;;2.51;89.28;101202.56;5046350;28;20850;-57
2021/04/23 02:14:01;;;;;;;0.30;0.10;;;;;;;2.48;89.75;101213.91;5026884;28;20468;-57
2021/04/23 02:16:28;;;;;;;0.30;0.10;;;;;;;2.48;89.74;101210.38;5050319;28;20487;-57
2021/04/23 02:18:54;;;;;;;0.30;0.20;;;;;;;2.44;90.34;101214.66;5052107;28;20447;-61
2021/04/23 02:21:21;;;;;;;0.30;0.10;;;;;;;2.46;90.87;101214.69;5028433;28;20457;-60
2021/04/23 02:23:50;;;;;;;0.30;0.20;;;;;;;2.18;90.90;101218.50;5044512;28;20471;-58
2021/04/23 02:26:17;;;;;;;0.30;0.17;;;;;;;2.28;90.96;101223.09;5050472;28;20450;-57
2021/04/23 02:28:44;;;;;;;0.30;0.20;;;;;;;2.25;90.20;101223.03;5051967;28;20451;-56
2021/04/23 02:31:14;;;;;;;0.30;0.20;;;;;;;2.20;90.30;101227.31;5046429;28;20453;-56
2021/04/23 02:33:43;;;;;;;0.30;0.20;;;;;;;1.74;93.11;101227.19;5024122;28;20524;-56
2021/04/23 02:36:10;;;;;;;0.30;0.20;;;;;;;2.06;91.42;101224.41;5046992;28;20491;-57
2021/04/23 02:38:37;;;;;;;0.30;0.20;;;;;;;2.12;92.02;101221.03;5051414;28;20450;-56
2021/04/23 02:41:05;;;;;;;0.30;0.13;;;;;;;1.91;91.39;101224.06;5048072;28;20451;-57
2021/04/23 02:43:36;;;;;;;1.60;1.47;;;;;;;1.94;91.55;101225.03;5051484;28;20525;-57
2021/04/23 02:46:03;;;;;;;0.30;0.10;;;;;;;1.90;90.88;101228.41;5049101;28;20447;-63
2021/04/23 02:48:32;;;;;;;0.30;0.10;;;;;;;1.98;91.72;101237.34;5026776;28;20447;-57
2021/04/23 02:51:03;;;;;;;0.30;0.10;;;;;;;2.02;91.27;101236.56;5044135;28;20542;-57
2021/04/23 02:53:31;;;;;;;0.30;0.20;;;;;;;1.96;90.48;101228.56;5051414;28;20463;-61
2021/04/23 02:55:58;;;;;;;0.30;0.20;;;;;;;1.98;91.01;101237.34;5050453;28;20491;-57
2021/04/23 02:58:24;;;;;;;0.20;0.20;;;;;;;1.80;91.78;101239.56;5044501;28;20496;-61
2021/04/23 03:00:54;;;;;;;0.30;0.20;;;;;;;1.58;92.13;101246.06;5044523;28;20963;-57
2021/04/23 03:03:22;;;;;;;0.30;0.20;;;;;;;1.62;93.37;101245.25;5049541;28;20478;-59
2021/04/23 03:05:52;;;;;;;0.30;0.17;;;;;;;1.96;90.58;101239.06;5050277;28;20447;-58
2021/04/23 03:08:19;;;;;;;0.40;0.40;;;;;;;1.59;92.22;101242.59;5043178;28;20447;-57
2021/04/23 03:10:49;;;;;;;0.30;0.10;;;;;;;1.66;93.34;101248.88;5034207;28;20443;-60
2021/04/23 03:13:20;;;;;;;0.30;0.10;;;;;;;1.67;94.06;101250.63;5047975;28;20546;-62
2021/04/23 03:15:48;;;;;;;0.30;0.10;;;;;;;1.70;92.40;101254.19;5050358;28;20487;-57
2021/04/23 03:18:19;;;;;;;0.30;0.10;;;;;;;2.02;92.12;101257.53;5047639;28;20450;-56
2021/04/23 03:20:47;;;;;;;0.30;0.20;;;;;;;1.77;91.57;101249.97;5043824;28;20451;-56
2021/04/23 03:23:14;;;;;;;0.33;0.33;;;;;;;1.59;92.54;101257.41;5028438;28;20478;-58
2021/04/23 03:25:41;;;;;;;0.20;0.10;;;;;;;1.70;92.32;101253.31;5050751;28;21019;-57
2021/04/23 03:28:08;;;;;;;0.30;0.13;;;;;;;1.71;92.34;101257.69;5048711;28;20451;-61
2021/04/23 03:30:39;;;;;;;0.30;0.20;;;;;;;1.61;92.96;101259.22;5043031;28;20470;-57
2021/04/23 03:33:07;;;;;;;0.20;0.13;;;;;;;1.66;92.04;101259.34;5024869;28;20488;-62
2021/04/23 03:35:34;;;;;;;0.50;0.50;;;;;;;1.70;92.62;101253.31;5048899;28;20483;-54
2021/04/23 03:38:01;;;;;;;0.30;0.10;;;;;;;1.55;93.27;101261.72;5046919;28;20956;-55
2021/04/23 03:40:30;;;;;;;0.27;0.20;;;;;;;1.53;92.26;101260.78;5050378;28;20502;-55
2021/04/23 03:42:56;;;;;;;0.20;0.20;;;;;;;1.34;92.61;101256.81;5048355;28;20455;-60
2021/04/23 03:45:24;;;;;;;0.30;0.20;;;;;;;1.39;93.79;101257.84;5042976;28;21013;-55
2021/04/23 03:47:51;;;;;;;0.30;0.10;;;;;;;1.45;93.63;101259.72;5044321;28;20443;-55
2021/04/23 03:50:22;;;;;;;0.27;0.10;;;;;;;1.40;94.15;101262.22;5050428;28;20455;-56
2021/04/23 03:52:49;;;;;;;0.30;0.10;;;;;;;1.37;93.19;101266.47;5049495;28;20459;-54
2021/04/23 03:55:20;;;;;;;0.30;0.10;;;;;;;1.36;93.16;101269.94;5029680;28;20486;-54
2021/04/23 03:57:46;;;;;;;0.40;0.40;;;;;;;1.18;93.22;101276.50;5042738;28;20487;-54
2021/04/23 04:00:16;;;;;;;0.30;0.10;;;;;;;1.05;94.28;101273.53;5049091;28;20451;-54
2021/04/23 04:02:42;;;;;;;0.30;0.20;;;;;;;1.16;95.21;101267.75;5048861;28;20477;-54
2021/04/23 04:05:10;;;;;;;0.20;0.10;;;;;;;1.37;94.02;101267.41;5043846;28;20853;-56
2021/04/23 04:07:36;;;;;;;0.23;0.10;;;;;;;1.48;93.31;101265.00;5042346;28;20459;-54
2021/04/23 04:10:06;;;;;;;0.30;0.10;;;;;;;1.51;92.31;101266.81;5032500;28;20459;-54
2021/04/23 04:12:32;;;;;;;0.30;0.10;;;;;;;1.32;93.61;101270.75;5049426;28;20501;-55
2021/04/23 04:14:58;;;;;;;0.20;0.13;;;;;;;1.13;93.84;101278.16;5035703;28;21004;-54
2021/04/23 04:17:25;;;;;;;0.20;0.10;;;;;;;0.99;94.67;101278.63;5041246;28;20501;-56
2021/04/23 04:19:51;;;;;;;0.20;0.10;;;;;;;1.03;96.40;101272.63;5047643;28;20454;-54
2021/04/23 04:22:17;;;;;;;0.20;0.10;;;;;;;1.11;96.98;101282.47;5049226;28;20497;-54
2021/04/23 04:24:43;;;;;;;0.30;0.10;;;;;;;1.23;96.79;101289.72;5043901;28;20467;-61
2021/04/23 04:27:09;;;;;;;0.20;0.20;;;;;;;1.23;96.32;101291.44;5042409;28;20458;-55
2021/04/23 04:29:36;;;;;;;0.20;0.10;;;;;;;1.20;95.93;101294.88;5045974;28;20566;-54
2021/04/23 04:32:02;;;;;;;0.20;0.10;;;;;;;1.21;97.41;101286.19;5034913;28;20441;-54
2021/04/23 04:34:28;;;;;;;0.50;0.50;;;;;;;1.37;95.87;101284.81;5023501;28;20495;-55
2021/04/23 04:36:55;;;;;;;0.23;0.10;;;;;;;1.98;92.25;101295.03;5040731;28;20458;-54
2021/04/23 04:39:21;;;;;;;0.30;0.20;;;;;;;1.56;94.35;101297.53;5049891;28;21009;-55
2021/04/23 04:41:48;;;;;;;0.20;0.20;;;;;;;1.55;94.80;101307.97;5041090;28;20454;-54
2021/04/23 04:44:14;;;;;;;0.20;0.10;;;;;;;1.70;94.81;101317.09;5044800;28;20475;-54
2021/04/23 04:46:40;;;;;;;0.20;0.20;;;;;;;1.63;95.99;101303.78;5047555;28;20455;-54
2021/04/23 04:49:06;;;;;;;0.47;0.47;;;;;;;1.89;95.53;101320.13;5044399;28;20900;-55
2021/04/23 04:51:32;;;;;;;0.20;0.20;;;;;;;1.80;95.83;101317.31;5041113;28;20455;-54
2021/04/23 04:53:58;;;;;;;0.30;0.10;;;;;;;1.94;94.55;101324.66;5044908;28;20511;-58
2021/04/23 04:56:25;;;;;;;0.30;0.13;;;;;;;1.89;95.42;101328.88;5047975;28;20496;-59
2021/04/23 04:58:51;;;;;;;0.20;0.20;;;;;;;1.92;94.79;101325.44;5027308;28;20450;-55
2021/04/23 05:01:17;;;;;;;0.30;0.10;;;;;;;1.99;95.02;101336.13;5042211;28;20454;-55
2021/04/23 05:03:44;;;;;;;0.20;0.10;;;;;;;2.13;94.75;101320.69;5045475;28;20479;-54
2021/04/23 05:06:11;;;;;;;0.20;0.10;;;;;;;2.67;92.26;101331.47;5048458;28;20451;-55
2021/04/23 05:08:38;;;;;;;0.30;0.10;;;;;;;3.38;90.04;101341.56;5037331;28;20941;-55
2021/04/23 05:11:04;;;;;;;0.27;0.20;;;;;;;4.03;86.28;101335.63;5044797;28;20454;-55
2021/04/23 05:13:30;;;;;;;0.30;0.10;;;;;;;4.49;83.13;101334.50;5046228;28;20489;-55
2021/04/23 05:15:58;;;;;;;5.60;1.07;;;;;;;4.79;81.09;101331.34;5045009;28;20848;-55
2021/04/23 05:18:24;;;;;;;0.30;0.20;;;;;;;5.01;79.43;101328.09;5048298;28;20451;-55
2021/04/23 05:20:50;;;;;;;0.30;0.10;;;;;;;5.18;79.17;101332.66;5034908;28;20452;-55
2021/04/23 05:23:16;;;;;;;0.30;0.20;;;;;;;5.49;79.15;101337.38;5048988;28;20891;-57
2021/04/23 05:25:43;;;;;;;0.30;0.20;;;;;;;5.64;78.30;101340.16;5045822;28;20513;-55
2021/04/23 05:28:09;;;;;;;0.30;0.20;;;;;;;5.86;77.17;101341.19;5048815;28;20452;-55
2021/04/23 05:30:37;;;;;;;0.30;0.20;;;;;;;5.74;76.07;101343.72;5052788;28;20451;-54
2021/04/23 05:33:06;;;;;;;0.30;0.20;;;;;;;6.28;75.09;101337.09;5038064;28;20964;-55
2021/04/23 05:35:33;;;;;;;0.30;0.20;;;;;;;6.31;74.50;101339.78;5034470;28;20575;-54
2021/04/23 05:37:59;;;;;;;0.30;0.20;;;;;;;6.37;75.04;101345.06;5048930;28;20446;-54
2021/04/23 05:40:48;;;;;;;0.30;0.20;;;;;;;6.54;74.65;101347.81;5052155;28;20455;-54
2021/04/23 05:43:16;;;;;;;0.30;0.20;;;;;;;6.36;75.60;101351.22;5051534;28;20517;-55
2021/04/23 05:45:44;;;;;;;0.30;0.20;;;;;;;6.84;74.49;101363.78;5047040;28;20443;-59
2021/04/23 05:48:12;;;;;;;0.30;0.20;;;;;;;6.97;72.57;101359.41;5044849;28;20517;-54
2021/04/23 05:50:38;;;;;;;0.30;0.20;;;;;;;6.90;73.96;101356.78;5048117;28;20513;-55
2021/04/23 05:53:05;;;;;;;0.30;0.20;;;;;;;6.86;73.95;101366.47;5050778;28;20466;-64
2021/04/23 05:55:33;;;;;;;0.30;0.20;;;;;;;6.98;72.77;101366.47;5047423;28;20563;-56
2021/04/23 05:58:02;;;;;;;0.30;0.20;;;;;;;6.82;73.99;101365.53;5044016;28;20450;-57
2021/04/23 06:00:31;;;;;;;0.77;0.77;;;;;;;7.18;73.02;101369.19;5047269;28;20456;-55
2021/04/23 06:02:58;;;;;;;1.13;1.13;;;;;;;6.89;73.34;101377.03;5033131;28;20452;-55
2021/04/23 06:05:28;;;;;;;0.30;0.20;;;;;;;7.23;71.89;101380.66;5049030;28;20447;-55
2021/04/23 06:07:56;;;;;;;0.60;0.60;;;;;;;7.03;73.07;101377.97;5042514;28;20446;-55
2021/04/23 06:10:23;;;;;;;0.30;0.20;;;;;;;7.01;73.29;101381.50;5043154;28;20459;-55
2021/04/23 06:12:50;;;;;;;0.30;0.20;;;;;;;7.02;73.56;101384.13;5050853;28;20936;-55
2021/04/23 06:15:17;;;;;;;0.30;0.30;;;;;;;6.83;75.04;101380.50;5048853;28;20502;-55
2021/04/23 06:17:43;;;;;;;0.30;0.20;;;;;;;7.16;74.38;101376.25;5043671;28;20446;-55
2021/04/23 06:20:13;;;;;;;0.30;0.20;;;;;;;6.82;75.63;101381.38;5046226;28;20949;-57
2021/04/23 06:22:40;;;;;;;0.30;0.20;;;;;;;7.02;76.25;101383.25;5050896;28;20456;-56
2021/04/23 06:25:09;;;;;;;0.30;0.20;;;;;;;6.67;76.72;101385.72;5049389;28;20474;-56
2021/04/23 06:27:36;;;;;;;0.30;0.20;;;;;;;6.96;77.44;101376.16;5043885;28;20487;-56
2021/04/23 06:30:09;;;;;;;0.30;0.20;;;;;;;6.71;78.00;101383.09;5045096;28;20458;-55
2021/04/23 06:32:36;;;;;;;0.30;0.20;;;;;;;6.64;78.56;101375.16;5029529;28;20455;-56
2021/04/23 06:35:03;;;;;;;0.30;0.20;;;;;;;6.98;77.56;101371.75;5050300;28;20498;-55
2021/04/23 06:37:29;;;;;;;0.30;0.20;;;;;;;7.58;76.86;101372.81;5044651;28;20442;-56
2021/04/23 06:39:55;;;;;;;0.30;0.20;;;;;;;7.53;75.06;101382.47;5024295;28;20449;-55
2021/04/23 06:42:21;;;;;;;0.30;0.20;;;;;;;7.47;76.19;101381.59;5043488;28;20454;-55
2021/04/23 06:44:48;;;;;;;0.40;0.20;;;;;;;7.51;77.17;101381.59;5042005;28;20471;-56
2021/04/23 06:47:14;;;;;;;0.30;0.20;;;;;;;7.81;76.15;101379.84;5047529;28;20452;-56
2021/04/23 06:49:40;;;;;;;0.40;0.20;;;;;;;7.79;77.47;101384.25;5030962;28;20827;-56
2021/04/23 06:52:06;;;;;;;1.07;1.07;;;;;;;7.73;76.81;101385.16;5043378;28;20450;-55
2021/04/23 06:54:33;;;;;;;0.30;0.20;;;;;;;7.59;77.96;101392.19;5041119;28;20472;-55
2021/04/23 06:56:59;;;;;;;0.30;0.20;;;;;;;7.94;77.90;101385.16;5046216;28;20476;-56
2021/04/23 06:59:25;;;;;;;0.30;0.20;;;;;;;7.91;76.41;101384.28;5048006;28;20467;-56
2021/04/23 07:01:51;;;;;;;0.30;0.20;;;;;;;8.22;76.37;101388.69;5043168;28;20505;-56
2021/04/23 07:04:18;;;;;;;0.30;0.20;;;;;;;8.70;74.31;101389.47;5022603;28;20988;-56
2021/04/23 07:06:46;;;;;;;0.30;0.10;;;;;;;8.44;74.72;101394.84;5027856;28;20443;-56
2021/04/23 07:09:17;;;;;;;0.30;0.20;;;;;;;8.48;75.98;101393.94;5034039;28;20453;-56
2021/04/23 07:11:45;;;;;;;0.30;0.20;;;;;;;8.49;75.54;101385.09;5043815;28;20447;-56
2021/04/23 07:14:11;;;;;;;0.30;0.20;;;;;;;8.70;75.65;101391.25;5040141;28;20479;-56
2021/04/23 07:16:37;;;;;;;0.30;0.20;;;;;;;9.48;73.21;101389.13;5043664;28;20858;-56
2021/04/23 07:19:04;;;;;;;0.30;0.20;;;;;;;8.79;74.07;101394.75;5029569;28;20448;-56
2021/04/23 07:21:31;;;;;;;2.97;1.53;;;;;;;8.42;76.13;101387.78;5044022;28;20450;-56
2021/04/23 07:23:57;;;;;;;0.30;0.20;;;;;;;8.83;76.04;101395.63;5040170;28;20846;-56
2021/04/23 07:26:23;;;;;;;0.30;0.20;;;;;;;9.16;73.32;101390.16;5042887;28;20530;-56
2021/04/23 07:28:49;;;;;;;0.30;0.30;;;;;;;8.89;74.92;101393.81;5047137;28;20455;-56
2021/04/23 07:31:17;;;;;;;0.30;0.30;;;;;;;9.32;72.77;101391.00;5041851;28;20458;-56
2021/04/23 07:33:44;;;;;;;0.50;0.47;;;;;;;9.76;71.27;101389.81;5021889;28;20506;-56
2021/04/23 07:36:10;;;;;;;0.80;0.80;;;;;;;10.10;69.93;101391.28;5042027;28;20492;-56
2021/04/23 07:38:36;;;;;;;0.30;0.20;;;;;;;9.18;73.08;101387.50;5039665;28;20464;-56
2021/04/23 07:41:02;;;;;;;0.87;0.60;;;;;;;9.62;71.67;101389.91;5024497;28;20479;-56
2021/04/23 07:43:29;;;;;;;0.30;0.20;;;;;;;9.46;70.51;101394.44;5046413;28;20468;-57
2021/04/23 07:45:59;;;;;;;0.30;0.20;;;;;;;9.85;69.28;101387.06;5044628;28;20459;-56
2021/04/23 07:48:26;;;;;;;0.40;0.30;;;;;;;9.72;69.39;101388.03;5039629;28;20454;-56
2021/04/23 07:50:53;;;;;;;0.77;0.77;;;;;;;9.85;68.59;101392.38;5041257;28;20456;-56
2021/04/23 07:53:19;;;;;;;0.30;0.30;;;;;;;10.12;67.90;101388.59;5046244;28;20472;-57
2021/04/23 07:55:46;;;;;;;0.40;0.40;;;;;;;10.15;67.37;101393.03;5044715;28;20490;-57
2021/04/23 07:58:12;;;;;;;0.30;0.20;;;;;;;10.27;66.14;101377.84;5039517;28;20873;-56
2021/04/23 08:00:38;;;;;;;0.30;0.20;;;;;;;10.66;65.27;101386.31;5040594;28;20451;-56
2021/04/23 08:03:05;;;;;;;0.30;0.20;;;;;;;11.40;63.78;101389.81;5045829;28;20476;-56
2021/04/23 08:05:32;;;;;;;0.30;0.20;;;;;;;11.45;62.81;101382.63;5045211;28;20451;-56
2021/04/23 08:08:03;;;;;;;0.30;0.20;;;;;;;11.46;61.48;101391.50;5039341;28;20516;-56
2021/04/23 08:10:30;;;;;;;0.30;0.20;;;;;;;10.89;62.34;101386.06;5027526;28;20831;-56
2021/04/23 08:12:58;;;;;;;0.30;0.20;;;;;;;10.64;63.99;101389.00;5045346;28;20447;-56
2021/04/23 08:15:25;;;;;;;0.30;0.20;;;;;;;11.33;62.89;101388.13;5045684;28;20547;-56
2021/04/23 08:17:55;;;;;;;0.30;0.20;;;;;;;10.97;62.44;101392.19;5039760;28;20500;-58
2021/04/23 08:20:22;;;;;;;0.30;0.20;;;;;;;11.92;60.75;101391.69;5039160;28;20444;-56
2021/04/23 08:22:48;;;;;;;0.30;0.20;;;;;;;11.51;61.33;101382.56;5043868;28;20465;-57
2021/04/23 08:25:17;;;;;;;0.30;0.20;;;;;;;11.67;61.42;101387.66;5045838;28;20516;-56
2021/04/23 08:27:44;;;;;;;0.30;0.20;;;;;;;11.85;60.58;101387.38;5041277;28;20860;-57
2021/04/23 08:30:11;;;;;;;0.30;0.20;;;;;;;12.01;59.59;101385.34;5038774;28;20482;-57
2021/04/23 08:32:38;;;;;;;0.30;0.20;;;;;;;11.42;60.55;101388.00;5029738;28;20441;-56
2021/04/23 08:35:07;;;;;;;0.30;0.20;;;;;;;11.40;61.53;101384.50;5039940;28;20581;-56
2021/04/23 08:37:34;;;;;;;0.30;0.20;;;;;;;12.16;60.55;101391.28;5041181;28;20538;-57
2021/04/23 08:40:00;;;;;;;0.30;0.20;;;;;;;12.26;59.28;101377.81;5047513;28;20501;-56
2021/04/23 08:42:28;;;;;;;0.40;0.30;;;;;;;11.53;60.07;101377.22;5041100;28;20957;-56
2021/04/23 08:44:54;;;;;;;0.73;0.67;;;;;;;12.02;60.22;101384.44;5038633;28;20467;-57
2021/04/23 08:47:21;;;;;;;0.30;0.20;;;;;;;12.60;58.79;101386.91;5042944;28;20455;-57
2021/04/23 08:49:48;;;;;;;0.30;0.20;;;;;;;12.07;59.92;101387.94;5027646;28;20965;-57
2021/04/23 08:52:15;;;;;;;0.30;0.20;;;;;;;12.77;57.86;101377.72;5041425;28;20508;-56
2021/04/23 08:54:41;;;;;;;0.83;0.83;;;;;;;12.54;59.68;101386.19;5038375;28;20478;-57
2021/04/23 08:57:08;;;;;;;0.30;0.20;;;;;;;12.14;58.09;101369.13;5042547;28;20538;-56
2021/04/23 08:59:34;;;;;;;0.30;0.20;;;;;;;12.19;60.61;101373.47;5045290;28;20995;-57
2021/04/23 09:02:02;;;;;;;0.30;0.20;;;;;;;12.18;59.98;101377.06;5041339;28;20443;-56
2021/04/23 09:04:29;;;;;;;0.30;0.20;;;;;;;11.93;58.89;101384.63;5038088;28;20585;-56
2021/04/23 09:07:06;;;;;;;0.30;0.20;;;;;;;11.94;59.26;101381.91;5024398;28;20455;-56
2021/04/23 09:09:40;;;;;;;0.30;0.20;;;;;;;12.08;59.44;101368.38;5031834;28;20443;-56
2021/04/23 09:12:24;;;;;;;0.33;0.23;;;;;;;11.94;59.00;101365.94;5044756;28;20447;-56
2021/04/23 09:14:52;;;;;;;0.30;0.20;;;;;;;11.95;59.34;101370.34;5028443;28;20474;-57
2021/04/23 09:17:23;;;;;;;0.33;0.23;;;;;;;12.43;59.16;101359.72;5038059;28;20518;-56
2021/04/23 09:19:51;;;;;;;0.30;0.20;;;;;;;12.82;57.49;101343.81;5042627;28;20531;-56
2021/04/23 09:22:17;;;;;;;0.30;0.30;;;;;;;12.53;58.28;101357.75;5045076;28;20455;-56
2021/04/23 09:24:52;;;;;;;0.40;0.40;;;;;;;12.85;57.22;101339.28;5040760;28;20516;-56
2021/04/23 09:27:23;;;;;;;0.40;0.30;;;;;;;12.63;56.85;101341.53;5020328;28;20537;-57
2021/04/23 09:29:53;;;;;;;0.30;0.20;;;;;;;12.99;54.71;101347.88;5040656;28;20451;-56
2021/04/23 09:32:33;;;;;;;0.30;0.20;;;;;;;13.05;56.14;101344.22;5030556;28;20440;-56
2021/04/23 09:35:00;;;;;;;0.30;0.20;;;;;;;13.37;53.69;101348.00;5038505;28;20558;-56
2021/04/23 09:37:48;;;;;;;1.63;1.53;;;;;;;13.10;53.42;101349.44;5039688;28;20879;-56
2021/04/23 09:40:18;;;;;;;0.43;0.43;;;;;;;13.25;50.86;101341.13;5016423;28;20455;-56
2021/04/23 09:42:51;;;;;;;0.30;0.20;;;;;;;13.46;49.97;101345.13;5025272;28;20509;-56
2021/04/23 09:45:20;;;;;;;0.30;0.20;;;;;;;12.96;50.26;101349.75;5020260;28;20939;-56
2021/04/23 09:47:47;;;;;;;0.30;0.20;;;;;;;13.50;50.32;101342.31;5038883;28;20518;-56
2021/04/23 09:50:15;;;;;;;0.30;0.20;;;;;;;13.61;50.04;101337.59;5044977;28;20826;-57
2021/04/23 09:52:47;;;;;;;0.30;0.20;;;;;;;13.26;51.18;101348.22;5044265;28;20508;-56
2021/04/23 09:55:19;;;;;;;0.30;0.20;;;;;;;13.29;51.69;101335.72;5044408;28;20495;-56
2021/04/23 09:58:03;;;;;;;0.70;0.70;;;;;;;13.12;51.09;101335.16;5044945;28;20443;-56
2021/04/23 10:00:32;;;;;;;0.30;0.20;;;;;;;13.89;49.10;101329.78;5044534;28;21002;-56
2021/04/23 10:03:01;;;;;;;0.30;0.20;;;;;;;13.29;50.44;101327.69;5041337;28;20451;-56
2021/04/23 10:05:38;;;;;;;1.33;1.13;;;;;;;13.36;49.20;101332.88;5043836;28;20443;-57
2021/04/23 10:08:08;;;;;;;1.50;1.50;;;;;;;13.46;48.77;101326.41;5048480;28;20447;-56
2021/04/23 10:10:36;;;;;;;0.30;0.20;;;;;;;14.04;48.36;101325.81;5040553;28;20943;-57
2021/04/23 10:13:09;;;;;;;0.30;0.20;;;;;;;13.90;48.43;101333.31;5048241;28;20536;-56
2021/04/23 10:15:40;;;;;;;0.30;0.20;;;;;;;13.50;47.13;101330.75;5048143;28;20490;-56
2021/04/23 10:18:11;;;;;;;0.30;0.20;;;;;;;14.08;46.92;101324.81;5042703;28;20525;-57
2021/04/23 10:20:40;;;;;;;0.63;0.63;;;;;;;13.80;46.73;101324.66;5041047;28;20928;-56
2021/04/23 10:23:10;;;;;;;0.30;0.20;;;;;;;13.62;48.10;101325.13;5027075;28;20498;-56
2021/04/23 10:25:38;;;;;;;0.30;0.20;;;;;;;14.54;48.38;101322.75;5047976;28;20452;-56
2021/04/23 10:28:09;;;;;;;0.30;0.20;;;;;;;13.62;47.63;101331.34;5044539;28;20474;-56
2021/04/23 10:30:41;;;;;;;0.40;0.30;;;;;;;13.51;47.90;101321.81;5041539;28;20463;-56
2021/04/23 10:33:11;;;;;;;0.30;0.20;;;;;;;13.50;47.79;101320.06;5021445;28;20516;-56
2021/04/23 10:35:39;;;;;;;0.30;0.20;;;;;;;14.08;47.84;101319.47;5047116;28;20510;-56
2021/04/23 10:38:07;;;;;;;0.87;0.87;;;;;;;13.82;48.80;101317.47;5027764;28;20500;-56
2021/04/23 10:40:35;;;;;;;0.30;0.20;;;;;;;13.82;47.36;101320.16;5028311;28;20465;-56
2021/04/23 10:43:08;;;;;;;0.70;0.57;;;;;;;13.87;48.90;101320.94;5040820;28;20447;-57
2021/04/23 10:45:48;;;;;;;0.30;0.20;;;;;;;14.43;48.38;101323.00;5046013;28;20936;-56
2021/04/23 10:48:16;;;;;;;0.30;0.20;;;;;;;14.22;48.20;101319.97;5047483;28;20510;-56
2021/04/23 10:50:45;;;;;;;0.30;0.20;;;;;;;13.77;48.41;101315.84;5044536;28;20451;-56
2021/04/23 10:53:26;;;;;;;0.30;0.20;;;;;;;14.47;47.74;101311.31;5035668;28;20565;-56
2021/04/23 10:55:55;;;;;;;1.17;0.83;;;;;;;14.24;47.42;101304.75;5037978;28;20534;-57
2021/04/23 10:58:21;;;;;;;0.30;0.20;;;;;;;14.39;46.34;101311.53;5047501;28;20455;-56
2021/04/23 11:00:49;;;;;;;0.40;0.40;;;;;;;14.31;43.76;101304.63;5047121;28;20970;-56
2021/04/23 11:03:21;;;;;;;0.30;0.20;;;;;;;14.64;45.59;101303.69;5047212;28;20476;-57
2021/04/23 11:05:52;;;;;;;0.30;0.20;;;;;;;14.39;45.11;101305.25;5045657;28;20454;-56
2021/04/23 11:08:19;;;;;;;0.40;0.30;;;;;;;14.39;44.89;101295.47;5035195;28;20444;-56
2021/04/23 11:11:13;;;;;;;0.30;0.20;;;;;;;14.45;45.33;101292.63;5045809;28;20455;-57
2021/04/23 11:13:47;;;;;;;0.30;0.20;;;;;;;14.89;45.08;101294.94;5045515;28;21017;-56
2021/04/23 11:16:20;;;;;;;0.30;0.20;;;;;;;14.84;44.93;101300.44;5039983;28;20513;-57
2021/04/23 11:18:59;;;;;;;0.40;0.30;;;;;;;14.66;45.12;101292.94;5040117;28;21010;-56
2021/04/23 11:21:35;;;;;;;0.30;0.20;;;;;;;14.94;45.33;101301.91;5044668;28;20871;-57
2021/04/23 11:24:17;;;;;;;0.30;0.20;;;;;;;14.57;43.97;101306.59;5046651;28;20475;-57
2021/04/23 11:27:00;;;;;;;0.50;0.50;;;;;;;14.63;45.00;101290.34;5046034;28;20451;-56
2021/04/23 11:29:50;;;;;;;0.30;0.20;;;;;;;15.30;44.79;101291.84;5029713;28;20455;-56
2021/04/23 11:32:22;;;;;;;0.30;0.20;;;;;;;15.00;43.72;101295.50;5035507;28;20513;-56
2021/04/23 11:35:18;;;;;;;0.30;0.20;;;;;;;14.82;43.37;101297.81;5028220;28;20837;-56
2021/04/23 11:37:44;;;;;;;0.30;0.20;;;;;;;15.54;42.22;101282.13;5015720;28;20796;-57